Indian Springs, Ohio
Current Conditions -  °F | °C
As of 10:53 PM on Monday 20 Oct 2014 (Local Time) from KHAO Reporting Station
Overcast Overcast  
Wind Chill: 57°   Ceiling: 7500
Heat Index: 57°   Visibility: 10mi
Dew Point: 52°   Wind: 8mph
Humidity: 83%   Direction: 350°N
Pressure: 29.91"   Gusts: NA
Location:  39.3284°N, 84.5465°W
Report Text: KHAO 210253Z AUTO 35007KT 10SM FEW055 BKN075 OVC095 14/11 A2991 RMK AO2 RAE05B28E53 SLP127 P0001 60001 T01390111 53009
Loading
Personal Weather Stations






























Interactive Weather Map
Tropical Storm Tracking
New forecast layout! Learn more

10-Day Weather Forecast

Advertisements
Track Severe Weather on mobile